Time;durP1;ratioP1;P1;durP2;ratioP2;P2;SDS_P1;SDS_P2;PMS_P1;PMS_P2;Temp;Humidity;BMP_temperature;BMP_pressure;BME280_temperature;BME280_humidity;BME280_pressure;Samples;Min_cycle;Max_cycle;Signal;HPM_P1;HPM_P2
2022/09/11 00:00:58;;;;;;;;;;;15.60;99.90;;;;;;5115313;28;19964;-63
2022/09/11 00:03:23;;;;;;;;;;;15.60;99.90;;;;;;5114889;28;19920;-63
2022/09/11 00:05:49;;;;;;;;;;;15.60;99.90;;;;;;5114857;28;19930;-62
2022/09/11 00:08:17;;;;;;;;;;;15.60;99.90;;;;;;5115493;28;19964;-63
2022/09/11 00:10:43;;;;;;;;;;;15.60;99.90;;;;;;5114697;28;19925;-62
2022/09/11 00:13:10;;;;;;;;;;;15.60;99.90;;;;;;5116822;27;20307;-63
2022/09/11 00:15:37;;;;;;;;;;;15.60;99.90;;;;;;5117858;27;19919;-62
2022/09/11 00:18:02;;;;;;;;;;;15.60;99.90;;;;;;5135971;27;19920;-63
2022/09/11 00:20:28;;;;;;;;;;;15.60;99.90;;;;;;5136065;27;20352;-63
2022/09/11 00:22:54;;;;;;;;;;;15.60;99.90;;;;;;5117678;27;19919;-63
2022/09/11 00:25:19;;;;;;;;;;;15.60;99.90;;;;;;5135329;27;20338;-63
2022/09/11 00:27:45;;;;;;;;;;;15.60;99.90;;;;;;5100516;27;20425;-63
2022/09/11 00:30:12;;;;;;;;;;;15.60;99.90;;;;;;5135576;27;19919;-63
2022/09/11 00:32:38;;;;;;;;;;;15.50;99.90;;;;;;5117537;27;19962;-63
2022/09/11 00:35:04;;;;;;;;;;;15.50;99.90;;;;;;5134608;27;20289;-63
2022/09/11 00:37:29;;;;;;;;;;;15.50;99.90;;;;;;5116766;27;19915;-62
2022/09/11 00:39:55;;;;;;;;;;;15.40;99.90;;;;;;5135512;27;19943;-63
2022/09/11 00:42:20;;;;;;;;;;;15.40;99.90;;;;;;5135030;27;19923;-63
2022/09/11 00:44:46;;;;;;;;;;;15.40;99.90;;;;;;5117464;27;19919;-63
2022/09/11 00:47:14;;;;;;;;;;;15.40;99.90;;;;;;5117397;27;20346;-64
2022/09/11 00:49:43;;;;;;;;;;;15.30;99.90;;;;;;5117574;27;19942;-62
2022/09/11 00:52:12;;;;;;;;;;;15.30;99.90;;;;;;5135284;27;20023;-62
2022/09/11 00:54:43;;;;;;;;;;;15.30;99.90;;;;;;5135587;27;19964;-62
2022/09/11 00:57:09;;;;;;;;;;;15.30;99.90;;;;;;5135207;27;19924;-62
2022/09/11 00:59:38;;;;;;;;;;;15.30;99.90;;;;;;5117326;27;19922;-62
2022/09/11 01:02:04;;;;;;;;;;;15.30;99.90;;;;;;5116794;27;20364;-62
2022/09/11 01:04:31;;;;;;;;;;;15.20;99.90;;;;;;5135008;27;19962;-63
2022/09/11 01:06:58;;;;;;;;;;;15.20;99.90;;;;;;5135391;27;20014;-63
2022/09/11 01:09:26;;;;;;;;;;;15.20;99.90;;;;;;5134307;27;19945;-63
2022/09/11 01:12:10;;;;;;;;;;;15.20;99.90;;;;;;5117305;27;20295;-63
2022/09/11 01:14:40;;;;;;;;;;;15.20;99.90;;;;;;5134534;27;19927;-63
2022/09/11 01:17:07;;;;;;;;;;;15.20;99.90;;;;;;5116607;27;19919;-63
2022/09/11 01:19:50;;;;;;;;;;;15.10;99.90;;;;;;5135377;27;20002;-63
2022/09/11 01:22:16;;;;;;;;;;;15.10;99.90;;;;;;5099630;27;20011;-62
2022/09/11 01:24:41;;;;;;;;;;;15.10;99.90;;;;;;5135089;27;19942;-62
2022/09/11 01:27:19;;;;;;;;;;;15.00;99.90;;;;;;5116565;27;19941;-63
2022/09/11 01:29:49;;;;;;;;;;;15.10;99.90;;;;;;5099554;27;19944;-63
2022/09/11 01:32:23;;;;;;;;;;;15.00;99.90;;;;;;5134479;27;20383;-62
2022/09/11 01:34:52;;;;;;;;;;;15.00;99.90;;;;;;5134618;27;20351;-65
2022/09/11 01:37:22;;;;;;;;;;;15.00;99.90;;;;;;5115870;27;19919;-61
2022/09/11 01:39:53;;;;;;;;;;;15.00;99.90;;;;;;5134786;27;20074;-61
2022/09/11 01:42:21;;;;;;;;;;;15.00;99.90;;;;;;5116055;27;19923;-61
2022/09/11 01:44:52;;;;;;;;;;;15.00;99.90;;;;;;5134471;27;19938;-61
2022/09/11 01:47:18;;;;;;;;;;;15.00;99.90;;;;;;5116059;27;19919;-62
2022/09/11 01:49:50;;;;;;;;;;;15.00;99.90;;;;;;5116440;27;20290;-62
2022/09/11 01:52:22;;;;;;;;;;;15.00;99.90;;;;;;5115855;27;19972;-62
2022/09/11 01:54:58;;;;;;;;;;;15.00;99.90;;;;;;5134407;27;19927;-62
2022/09/11 01:57:34;;;;;;;;;;;15.00;99.90;;;;;;5133453;27;19919;-62
2022/09/11 02:00:01;;;;;;;;;;;15.00;99.90;;;;;;5099134;27;20305;-62
2022/09/11 02:02:37;;;;;;;;;;;15.00;99.90;;;;;;5134289;27;19915;-62
2022/09/11 02:05:23;;;;;;;;;;;15.00;99.90;;;;;;5134288;27;19949;-62
2022/09/11 02:07:57;;;;;;;;;;;15.00;99.90;;;;;;5132955;27;19926;-62
2022/09/11 02:10:26;;;;;;;;;;;14.90;99.90;;;;;;5133713;27;19920;-62
2022/09/11 02:12:57;;;;;;;;;;;15.00;99.90;;;;;;5133996;27;19926;-62
2022/09/11 02:15:25;;;;;;;;;;;15.00;99.90;;;;;;5098592;27;20245;-62
2022/09/11 02:17:54;;;;;;;;;;;15.00;99.90;;;;;;5114977;27;19959;-63
2022/09/11 02:20:20;;;;;;;;;;;15.00;99.90;;;;;;5133417;27;19926;-62
2022/09/11 02:22:46;;;;;;;;;;;14.90;99.90;;;;;;5133650;27;19919;-62
2022/09/11 02:25:12;;;;;;;;;;;14.90;99.90;;;;;;5133753;27;19919;-62
2022/09/11 02:27:38;;;;;;;;;;;14.90;99.90;;;;;;5133425;27;19923;-62
2022/09/11 02:30:04;;;;;;;;;;;14.90;99.90;;;;;;5133826;27;19919;-62
2022/09/11 02:32:31;;;;;;;;;;;14.90;99.90;;;;;;5133507;27;19919;-63
2022/09/11 02:34:57;;;;;;;;;;;14.80;99.90;;;;;;5115603;27;19944;-62
2022/09/11 02:37:49;;;;;;;;;;;14.80;99.90;;;;;;5114990;27;20364;-63
2022/09/11 02:40:23;;;;;;;;;;;14.80;99.90;;;;;;5101221;27;19988;-62
2022/09/11 02:42:58;;;;;;;;;;;14.80;99.90;;;;;;5133789;27;20521;-62
2022/09/11 02:45:42;;;;;;;;;;;14.80;99.90;;;;;;5114793;27;19945;-62
2022/09/11 02:48:35;;;;;;;;;;;14.80;99.90;;;;;;5098138;27;19919;-62
2022/09/11 02:51:19;;;;;;;;;;;14.80;99.90;;;;;;5115318;27;19919;-63
2022/09/11 02:54:03;;;;;;;;;;;14.80;99.90;;;;;;5132970;27;20441;-62
2022/09/11 02:56:37;;;;;;;;;;;14.80;99.90;;;;;;5133115;27;19982;-62
2022/09/11 02:59:10;;;;;;;;;;;14.80;99.90;;;;;;5133335;27;19926;-62
2022/09/11 03:01:50;;;;;;;;;;;14.80;99.90;;;;;;5133167;28;19976;-62
2022/09/11 03:04:17;;;;;;;;;;;14.70;99.90;;;;;;5114988;28;19919;-62
2022/09/11 03:06:43;;;;;;;;;;;14.70;99.90;;;;;;5133122;28;20018;-63
2022/09/11 03:09:09;;;;;;;;;;;14.70;99.90;;;;;;5115057;28;19930;-62
2022/09/11 03:11:35;;;;;;;;;;;14.70;99.90;;;;;;5132766;28;19919;-63
2022/09/11 03:14:00;;;;;;;;;;;14.70;99.90;;;;;;5133256;28;19927;-62
2022/09/11 03:16:26;;;;;;;;;;;14.70;99.90;;;;;;5132778;28;19934;-62
2022/09/11 03:18:52;;;;;;;;;;;14.60;99.90;;;;;;5115247;28;19996;-62
2022/09/11 03:21:17;;;;;;;;;;;14.60;99.90;;;;;;5133104;28;20264;-62
2022/09/11 03:23:43;;;;;;;;;;;14.60;99.90;;;;;;5132572;28;19920;-62
2022/09/11 03:26:09;;;;;;;;;;;14.60;99.90;;;;;;5114901;28;19927;-62
2022/09/11 03:28:34;;;;;;;;;;;14.60;99.90;;;;;;5132652;28;20390;-62
2022/09/11 03:31:00;;;;;;;;;;;14.50;99.90;;;;;;5132699;28;20022;-62
2022/09/11 03:33:26;;;;;;;;;;;14.50;99.90;;;;;;5100370;27;19926;-65
2022/09/11 03:35:52;;;;;;;;;;;14.50;99.90;;;;;;5119012;27;19930;-62
2022/09/11 03:38:18;;;;;;;;;;;14.50;99.90;;;;;;5118914;27;20292;-62
2022/09/11 03:40:44;;;;;;;;;;;14.50;99.90;;;;;;5136690;27;19926;-62
2022/09/11 03:43:11;;;;;;;;;;;14.50;99.90;;;;;;5118902;27;19920;-62
2022/09/11 03:45:37;;;;;;;;;;;14.40;99.90;;;;;;5136525;27;19916;-62
2022/09/11 03:48:03;;;;;;;;;;;14.40;99.90;;;;;;5136871;27;19919;-62
2022/09/11 03:50:28;;;;;;;;;;;14.40;99.90;;;;;;5101509;27;19930;-65
2022/09/11 03:52:54;;;;;;;;;;;14.40;99.90;;;;;;5118417;27;20321;-62
2022/09/11 03:55:21;;;;;;;;;;;14.30;99.90;;;;;;5136777;27;19924;-62
2022/09/11 03:57:47;;;;;;;;;;;14.30;99.90;;;;;;5136205;27;19981;-62
2022/09/11 04:00:12;;;;;;;;;;;14.30;99.90;;;;;;5136706;27;20365;-62
2022/09/11 04:02:38;;;;;;;;;;;14.30;99.90;;;;;;5117469;27;19927;-62
2022/09/11 04:05:04;;;;;;;;;;;14.30;99.90;;;;;;5136796;27;19919;-63
2022/09/11 04:07:29;;;;;;;;;;;14.30;99.90;;;;;;5136179;27;19970;-63
2022/09/11 04:09:56;;;;;;;;;;;14.30;99.90;;;;;;5117925;27;19956;-62
2022/09/11 04:12:21;;;;;;;;;;;14.30;99.90;;;;;;5136384;27;19981;-63
2022/09/11 04:14:49;;;;;;;;;;;14.30;99.90;;;;;;5117212;27;19967;-62
2022/09/11 04:17:15;;;;;;;;;;;14.20;99.90;;;;;;5136565;27;19926;-62
2022/09/11 04:19:40;;;;;;;;;;;14.20;99.90;;;;;;5135898;27;19998;-62
2022/09/11 04:22:06;;;;;;;;;;;14.20;99.90;;;;;;5136172;27;20013;-62
2022/09/11 04:24:32;;;;;;;;;;;14.20;99.90;;;;;;5117846;27;19919;-62
2022/09/11 04:26:59;;;;;;;;;;;14.20;99.90;;;;;;5117253;27;20339;-62
2022/09/11 04:29:25;;;;;;;;;;;14.20;99.90;;;;;;5135908;27;20007;-63
2022/09/11 04:31:51;;;;;;;;;;;14.20;99.90;;;;;;5117401;27;19920;-62
2022/09/11 04:34:16;;;;;;;;;;;14.30;99.90;;;;;;5135882;27;19926;-62
2022/09/11 04:36:42;;;;;;;;;;;14.30;99.90;;;;;;5135404;27;19919;-62
2022/09/11 04:39:08;;;;;;;;;;;14.30;99.90;;;;;;5117596;27;19927;-62
2022/09/11 04:41:33;;;;;;;;;;;14.30;99.90;;;;;;5135776;27;19919;-63
2022/09/11 04:43:59;;;;;;;;;;;14.30;99.90;;;;;;5135220;27;19976;-62
2022/09/11 04:46:25;;;;;;;;;;;14.30;99.90;;;;;;5135767;27;19963;-62
2022/09/11 04:48:53;;;;;;;;;;;14.30;99.90;;;;;;5135464;27;20334;-62
2022/09/11 04:51:23;;;;;;;;;;;14.30;99.90;;;;;;5135367;27;19933;-62
2022/09/11 04:53:53;;;;;;;;;;;14.30;99.90;;;;;;5135137;27;19971;-62
2022/09/11 04:56:20;;;;;;;;;;;14.30;99.90;;;;;;5117166;27;19923;-62
2022/09/11 04:58:45;;;;;;;;;;;14.30;99.90;;;;;;5135235;27;19940;-62
2022/09/11 05:01:13;;;;;;;;;;;14.40;99.90;;;;;;5135433;27;20351;-63
2022/09/11 05:03:39;;;;;;;;;;;14.40;99.90;;;;;;5117381;27;19923;-62
2022/09/11 05:06:05;;;;;;;;;;;14.40;99.90;;;;;;5134819;27;19927;-62
2022/09/11 05:08:32;;;;;;;;;;;14.30;99.90;;;;;;5135491;27;19976;-62
2022/09/11 05:10:58;;;;;;;;;;;14.30;99.90;;;;;;5134847;27;19980;-62
2022/09/11 05:13:24;;;;;;;;;;;14.40;99.90;;;;;;5135132;27;19927;-62
2022/09/11 05:15:50;;;;;;;;;;;14.30;99.90;;;;;;5099278;27;19919;-62
2022/09/11 05:18:15;;;;;;;;;;;14.40;99.90;;;;;;5134745;27;19920;-62
2022/09/11 05:20:42;;;;;;;;;;;14.40;99.90;;;;;;5116802;27;19924;-62
2022/09/11 05:23:10;;;;;;;;;;;14.40;99.90;;;;;;5116627;27;19968;-62
2022/09/11 05:25:35;;;;;;;;;;;14.50;99.90;;;;;;5134981;27;19915;-62
2022/09/11 05:28:02;;;;;;;;;;;14.50;99.90;;;;;;5133850;27;19919;-62
2022/09/11 05:30:27;;;;;;;;;;;14.50;99.90;;;;;;5134848;27;19966;-62
2022/09/11 05:32:56;;;;;;;;;;;14.50;99.90;;;;;;5134467;27;19962;-62
2022/09/11 05:35:25;;;;;;;;;;;14.50;99.90;;;;;;5134629;27;19966;-62
2022/09/11 05:37:50;;;;;;;;;;;14.60;99.90;;;;;;5134140;27;19931;-62
2022/09/11 05:40:16;;;;;;;;;;;14.60;99.90;;;;;;5116403;27;20009;-62
2022/09/11 05:42:41;;;;;;;;;;;14.60;99.90;;;;;;5134515;27;19926;-62
2022/09/11 05:45:07;;;;;;;;;;;14.70;99.90;;;;;;5134204;27;20144;-62
2022/09/11 05:47:33;;;;;;;;;;;15.20;99.90;;;;;;5116108;27;19972;-62
2022/09/11 05:49:58;;;;;;;;;;;15.70;99.90;;;;;;5133835;27;19923;-62
2022/09/11 05:52:24;;;;;;;;;;;16.30;99.90;;;;;;5098915;27;19919;-62
2022/09/11 05:54:51;;;;;;;;;;;16.90;99.90;;;;;;5115412;27;19924;-63
2022/09/11 05:57:18;;;;;;;;;;;17.50;99.90;;;;;;5098772;27;20051;-65
2022/09/11 05:59:44;;;;;;;;;;;18.00;99.90;;;;;;5115747;27;20257;-63
2022/09/11 06:02:10;;;;;;;;;;;18.30;99.90;;;;;;5115135;27;20154;-62
2022/09/11 06:04:36;;;;;;;;;;;18.20;99.90;;;;;;5134316;27;20280;-62
2022/09/11 06:07:01;;;;;;;;;;;18.10;99.90;;;;;;5114992;27;20023;-62
2022/09/11 06:09:27;;;;;;;;;;;17.80;99.90;;;;;;5134042;27;19919;-62
2022/09/11 06:11:52;;;;;;;;;;;17.60;99.90;;;;;;5133778;27;19927;-63
2022/09/11 06:14:18;;;;;;;;;;;17.40;99.90;;;;;;5111772;28;20391;-63
2022/09/11 06:16:44;;;;;;;;;;;17.20;99.90;;;;;;5113291;28;19920;-62
2022/09/11 06:19:09;;;;;;;;;;;17.10;99.90;;;;;;5112088;28;20555;-63
2022/09/11 06:21:35;;;;;;;;;;;17.00;99.90;;;;;;5112369;28;19950;-62
2022/09/11 06:24:01;;;;;;;;;;;16.90;99.90;;;;;;5113398;28;19919;-62
2022/09/11 06:26:28;;;;;;;;;;;16.90;99.90;;;;;;5113044;28;20262;-62
2022/09/11 06:28:54;;;;;;;;;;;16.80;99.90;;;;;;5112148;28;20290;-63
2022/09/11 06:31:21;;;;;;;;;;;16.80;99.90;;;;;;5112860;28;19924;-63
2022/09/11 06:33:46;;;;;;;;;;;16.80;99.90;;;;;;5113318;28;19920;-63
2022/09/11 06:36:19;;;;;;;;;;;16.80;99.90;;;;;;5111661;28;19920;-61
2022/09/11 06:38:45;;;;;;;;;;;16.70;99.90;;;;;;5112971;28;19966;-62
2022/09/11 06:41:14;;;;;;;;;;;16.70;99.90;;;;;;5112532;28;19919;-63
2022/09/11 06:43:41;;;;;;;;;;;16.80;99.90;;;;;;5113064;28;19920;-61
2022/09/11 06:46:09;;;;;;;;;;;16.90;99.90;;;;;;5111760;28;20014;-63
2022/09/11 06:48:34;;;;;;;;;;;16.90;99.90;;;;;;5113017;28;19971;-62
2022/09/11 06:51:03;;;;;;;;;;;16.90;99.90;;;;;;5112141;28;19972;-63
2022/09/11 06:53:29;;;;;;;;;;;16.90;99.90;;;;;;5112831;28;20371;-62
2022/09/11 06:56:02;;;;;;;;;;;17.00;99.90;;;;;;5111731;28;19919;-62
2022/09/11 06:58:28;;;;;;;;;;;17.00;99.90;;;;;;5112530;28;19920;-62
2022/09/11 07:01:03;;;;;;;;;;;17.00;99.90;;;;;;5112848;28;19924;-62
2022/09/11 07:03:29;;;;;;;;;;;17.00;99.90;;;;;;5112705;28;19923;-62
2022/09/11 07:05:55;;;;;;;;;;;17.00;99.90;;;;;;5112837;28;19920;-63
2022/09/11 07:08:20;;;;;;;;;;;17.10;99.90;;;;;;5113845;28;20585;-62
2022/09/11 07:10:46;;;;;;;;;;;17.10;99.90;;;;;;5117091;28;20003;-62
2022/09/11 07:13:12;;;;;;;;;;;17.20;99.90;;;;;;5100119;27;19948;-62
2022/09/11 07:15:37;;;;;;;;;;;17.20;99.90;;;;;;5137400;27;20217;-62
2022/09/11 07:18:04;;;;;;;;;;;17.50;99.90;;;;;;5136992;27;19926;-63
2022/09/11 07:20:30;;;;;;;;;;;17.40;99.90;;;;;;5119326;27;19919;-63
2022/09/11 07:22:57;;;;;;;;;;;17.40;99.90;;;;;;5137223;27;19933;-62
2022/09/11 07:25:23;;;;;;;;;;;17.50;99.90;;;;;;5118539;27;19919;-64
2022/09/11 07:27:50;;;;;;;;;;;17.60;99.90;;;;;;5137209;27;19983;-64
2022/09/11 07:30:16;;;;;;;;;;;17.70;99.90;;;;;;5118787;27;19930;-64
2022/09/11 07:32:42;;;;;;;;;;;17.80;99.90;;;;;;5137092;27;20022;-64
2022/09/11 07:35:07;;;;;;;;;;;17.90;99.90;;;;;;5136488;27;19942;-64
2022/09/11 07:37:33;;;;;;;;;;;18.10;99.90;;;;;;5118580;27;20022;-64
2022/09/11 07:39:58;;;;;;;;;;;18.40;99.90;;;;;;5118223;27;19924;-63
2022/09/11 07:42:24;;;;;;;;;;;18.60;99.90;;;;;;5136415;27;19919;-63
2022/09/11 07:44:49;;;;;;;;;;;19.20;99.90;;;;;;5118117;27;19926;-63
2022/09/11 07:47:15;;;;;;;;;;;20.20;99.90;;;;;;5136311;27;19919;-62
2022/09/11 07:49:41;;;;;;;;;;;21.30;99.90;;;;;;5136629;27;19919;-63
2022/09/11 07:52:06;;;;;;;;;;;22.50;99.90;;;;;;5136458;27;19919;-62
2022/09/11 07:54:32;;;;;;;;;;;23.50;99.90;;;;;;5117905;27;19916;-63
2022/09/11 07:56:57;;;;;;;;;;;24.30;99.90;;;;;;5136005;27;20294;-63
2022/09/11 07:59:23;;;;;;;;;;;25.10;99.90;;;;;;5136235;27;19922;-63
2022/09/11 08:01:50;;;;;;;;;;;25.80;99.90;;;;;;5136178;27;19923;-63
2022/09/11 08:04:15;;;;;;;;;;;26.50;99.90;;;;;;5116729;27;19919;-62
2022/09/11 08:06:41;;;;;;;;;;;27.10;99.90;;;;;;5135528;27;19926;-63
2022/09/11 08:09:08;;;;;;;;;;;27.70;99.90;;;;;;5135917;27;20037;-62
2022/09/11 08:11:42;;;;;;;;;;;28.20;99.90;;;;;;5117417;27;20019;-62
2022/09/11 08:14:08;;;;;;;;;;;28.70;99.90;;;;;;5117567;27;20284;-63
2022/09/11 08:16:37;;;;;;;;;;;29.30;99.20;;;;;;5117229;27;19919;-63
2022/09/11 08:19:04;;;;;;;;;;;29.70;98.00;;;;;;5117758;27;19947;-62
2022/09/11 08:21:29;;;;;;;;;;;30.00;96.80;;;;;;5135647;27;19923;-63
2022/09/11 08:23:55;;;;;;;;;;;30.40;95.80;;;;;;5136025;27;19971;-63
2022/09/11 08:26:21;;;;;;;;;;;30.20;95.10;;;;;;5117154;27;20370;-63
2022/09/11 08:28:49;;;;;;;;;;;29.40;96.50;;;;;;5135571;27;20288;-61
2022/09/11 08:31:15;;;;;;;;;;;28.20;96.10;;;;;;5135716;27;19926;-62
2022/09/11 08:33:41;;;;;;;;;;;27.00;97.10;;;;;;5135759;27;19919;-62
2022/09/11 08:36:08;;;;;;;;;;;26.00;97.80;;;;;;5100353;27;19964;-62
2022/09/11 08:38:34;;;;;;;;;;;25.30;98.40;;;;;;5116751;27;20485;-62
2022/09/11 08:41:18;;;;;;;;;;;24.70;99.40;;;;;;5117147;27;19922;-61
2022/09/11 08:43:55;;;;;;;;;;;24.20;99.90;;;;;;5135535;27;20354;-62
2022/09/11 08:46:23;;;;;;;;;;;23.80;99.90;;;;;;5116574;27;20384;-63
2022/09/11 08:49:07;;;;;;;;;;;23.60;99.90;;;;;;5135503;27;20321;-63
2022/09/11 08:51:34;;;;;;;;;;;23.40;99.90;;;;;;5135350;27;19919;-63
2022/09/11 08:54:01;;;;;;;;;;;23.40;99.90;;;;;;5117384;27;19919;-62
2022/09/11 08:56:35;;;;;;;;;;;23.30;99.90;;;;;;5134896;27;19919;-63
2022/09/11 08:59:20;;;;;;;;;;;23.10;99.90;;;;;;5135437;27;19923;-63
2022/09/11 09:02:09;;;;;;;;;;;23.00;99.90;;;;;;5135372;27;19926;-63
2022/09/11 09:04:55;;;;;;;;;;;22.80;99.90;;;;;;5134918;27;20433;-63
2022/09/11 09:07:27;;;;;;;;;;;22.70;99.90;;;;;;5092886;27;20371;-66
2022/09/11 09:09:52;;;;;;;;;;;22.60;99.90;;;;;;5117056;27;19975;-61
2022/09/11 09:12:21;;;;;;;;;;;23.60;99.90;;;;;;5116932;27;19919;-61
2022/09/11 09:14:52;;;;;;;;;;;24.90;99.90;;;;;;5134899;27;19958;-61
2022/09/11 09:17:23;;;;;;;;;;;26.10;99.30;;;;;;5134848;27;19964;-61
2022/09/11 09:19:56;;;;;;;;;;;26.80;97.40;;;;;;5135301;27;20395;-61
2022/09/11 09:22:21;;;;;;;;;;;26.70;96.70;;;;;;5116560;27;19968;-61
2022/09/11 09:24:48;;;;;;;;;;;26.30;97.20;;;;;;5116091;27;19966;-62
2022/09/11 09:27:20;;;;;;;;;;;26.00;97.20;;;;;;5134663;27;20363;-64
2022/09/11 09:29:48;;;;;;;;;;;25.80;97.30;;;;;;5115587;28;19920;-61
2022/09/11 09:32:19;;;;;;;;;;;25.60;96.70;;;;;;5134393;27;20276;-61
2022/09/11 09:34:47;;;;;;;;;;;25.40;97.30;;;;;;5116199;27;20375;-62
2022/09/11 09:37:19;;;;;;;;;;;25.00;97.20;;;;;;5116104;27;19926;-62
2022/09/11 09:39:45;;;;;;;;;;;24.90;96.80;;;;;;5134220;27;19927;-61
2022/09/11 09:42:20;;;;;;;;;;;25.00;96.60;;;;;;5134647;27;20006;-63
2022/09/11 09:45:01;;;;;;;;;;;25.10;96.40;;;;;;5133596;27;20324;-62
2022/09/11 09:47:28;;;;;;;;;;;25.10;96.20;;;;;;5116149;27;20365;-64
2022/09/11 09:49:57;;;;;;;;;;;25.00;96.40;;;;;;5134547;27;20024;-62
2022/09/11 09:52:24;;;;;;;;;;;24.90;96.30;;;;;;5133743;27;19926;-63
2022/09/11 09:54:56;;;;;;;;;;;24.70;96.50;;;;;;5115588;27;19919;-62
2022/09/11 09:57:23;;;;;;;;;;;24.20;97.60;;;;;;5134159;27;19926;-62
2022/09/11 09:59:56;;;;;;;;;;;23.70;99.30;;;;;;5133559;27;20360;-63
2022/09/11 10:02:30;;;;;;;;;;;23.30;99.90;;;;;;5134080;27;19942;-62
2022/09/11 10:05:17;;;;;;;;;;;22.90;99.90;;;;;;5115838;27;19919;-63
2022/09/11 10:07:47;;;;;;;;;;;22.70;99.90;;;;;;5115683;27;19919;-62
2022/09/11 10:10:23;;;;;;;;;;;22.40;99.90;;;;;;5133944;27;19927;-62
2022/09/11 10:12:49;;;;;;;;;;;22.20;99.90;;;;;;5114826;27;19973;-62
2022/09/11 10:15:20;;;;;;;;;;;22.00;99.90;;;;;;5133878;27;19962;-63
2022/09/11 10:17:46;;;;;;;;;;;21.90;99.90;;;;;;5133200;27;19972;-63
2022/09/11 10:20:21;;;;;;;;;;;21.80;99.90;;;;;;5115569;27;19959;-63
2022/09/11 10:22:48;;;;;;;;;;;21.90;99.90;;;;;;5133161;27;20011;-62
2022/09/11 10:25:15;;;;;;;;;;;21.90;99.90;;;;;;5115572;27;20015;-62
2022/09/11 10:27:55;;;;;;;;;;;21.90;99.90;;;;;;5133364;27;19966;-62
2022/09/11 10:30:23;;;;;;;;;;;21.90;99.90;;;;;;5115348;27;20329;-62
2022/09/11 10:32:49;;;;;;;;;;;21.90;99.90;;;;;;5132442;27;20017;-62
2022/09/11 10:35:16;;;;;;;;;;;22.00;99.90;;;;;;5132796;27;19965;-62
2022/09/11 10:37:42;;;;;;;;;;;22.10;99.90;;;;;;5114377;27;19980;-63
2022/09/11 10:40:17;;;;;;;;;;;22.20;99.90;;;;;;5130920;27;19919;-63
2022/09/11 10:42:44;;;;;;;;;;;22.20;99.90;;;;;;5131537;27;19919;-62
2022/09/11 10:45:15;;;;;;;;;;;22.00;99.90;;;;;;5114610;27;19925;-64
2022/09/11 10:47:41;;;;;;;;;;;22.00;99.90;;;;;;5114628;27;19919;-64
2022/09/11 10:50:19;;;;;;;;;;;22.10;99.90;;;;;;5133249;27;20096;-63
2022/09/11 10:52:56;;;;;;;;;;;22.30;99.90;;;;;;5114666;27;20372;-63
2022/09/11 10:55:26;;;;;;;;;;;22.40;99.90;;;;;;5132774;27;19919;-63
2022/09/11 10:57:53;;;;;;;;;;;22.40;99.90;;;;;;5133044;27;19919;-62
2022/09/11 11:00:22;;;;;;;;;;;22.50;99.90;;;;;;5132891;27;19961;-63
2022/09/11 11:02:59;;;;;;;;;;;22.60;99.90;;;;;;5132598;27;19995;-62
2022/09/11 11:05:44;;;;;;;;;;;22.90;99.90;;;;;;5115140;28;19926;-62
2022/09/11 11:08:36;;;;;;;;;;;23.20;99.90;;;;;;5097984;28;20403;-63
2022/09/11 11:11:16;;;;;;;;;;;23.30;99.90;;;;;;5100274;28;20085;-62
2022/09/11 11:13:51;;;;;;;;;;;23.40;99.90;;;;;;5132439;28;19923;-63
2022/09/11 11:16:19;;;;;;;;;;;23.50;99.90;;;;;;5132677;28;19964;-64
2022/09/11 11:18:46;;;;;;;;;;;23.50;99.60;;;;;;5132417;28;19923;-63
2022/09/11 11:21:11;;;;;;;;;;;23.50;99.90;;;;;;5114246;28;20010;-62
2022/09/11 11:23:43;;;;;;;;;;;23.40;99.90;;;;;;5132953;28;19927;-62
2022/09/11 11:26:09;;;;;;;;;;;23.20;98.10;;;;;;5132941;28;19923;-63
2022/09/11 11:29:01;;;;;;;;;;;23.00;98.30;;;;;;5132851;28;19919;-62
2022/09/11 11:31:40;;;;;;;;;;;23.00;98.50;;;;;;5100668;28;19926;-62
2022/09/11 11:34:25;;;;;;;;;;;22.90;99.00;;;;;;5114244;28;20014;-62
2022/09/11 11:36:58;;;;;;;;;;;22.90;99.10;;;;;;5113948;28;19920;-62
2022/09/11 11:39:27;;;;;;;;;;;22.90;99.40;;;;;;5097424;28;20029;-62
2022/09/11 11:42:02;;;;;;;;;;;22.90;99.50;;;;;;5131917;28;19930;-63
2022/09/11 11:44:32;;;;;;;;;;;22.80;99.80;;;;;;5114375;28;19919;-62
2022/09/11 11:46:59;;;;;;;;;;;22.80;99.90;;;;;;5113677;28;19915;-62
2022/09/11 11:49:30;;;;;;;;;;;22.70;99.90;;;;;;5132253;28;19972;-62
2022/09/11 11:52:14;;;;;;;;;;;22.70;99.90;;;;;;5131870;28;20315;-63
2022/09/11 11:54:44;;;;;;;;;;;22.70;99.90;;;;;;5134963;27;19919;-62
2022/09/11 11:57:17;;;;;;;;;;;22.80;99.90;;;;;;5100664;27;19919;-63
2022/09/11 11:59:42;;;;;;;;;;;22.80;99.90;;;;;;5136147;27;20339;-63
2022/09/11 12:02:08;;;;;;;;;;;22.90;99.90;;;;;;5117657;27;19923;-63
2022/09/11 12:04:52;;;;;;;;;;;23.00;99.90;;;;;;5118047;27;20015;-62
2022/09/11 12:07:24;;;;;;;;;;;23.00;99.90;;;;;;5136073;27;19926;-62
2022/09/11 12:09:51;;;;;;;;;;;23.20;99.90;;;;;;5135963;27;19962;-62
2022/09/11 12:12:16;;;;;;;;;;;23.30;99.90;;;;;;5135374;27;19953;-62
2022/09/11 12:14:53;;;;;;;;;;;23.50;99.90;;;;;;5116809;27;19923;-62
2022/09/11 12:17:24;;;;;;;;;;;23.60;99.90;;;;;;5136118;27;20005;-62
2022/09/11 12:20:08;;;;;;;;;;;23.80;99.70;;;;;;5135884;27;19987;-66
2022/09/11 12:22:37;;;;;;;;;;;23.90;99.00;;;;;;5118020;27;19920;-63
2022/09/11 12:25:04;;;;;;;;;;;24.00;99.60;;;;;;5135851;27;20001;-63
2022/09/11 12:27:33;;;;;;;;;;;24.00;98.50;;;;;;5117834;27;19926;-62
2022/09/11 12:30:08;;;;;;;;;;;24.00;98.20;;;;;;5135020;27;19927;-62
2022/09/11 12:32:44;;;;;;;;;;;24.00;98.60;;;;;;5135433;27;20014;-62
2022/09/11 12:35:18;;;;;;;;;;;24.00;99.80;;;;;;5099963;27;19919;-63
2022/09/11 12:37:45;;;;;;;;;;;24.00;99.90;;;;;;5135407;27;19919;-63
2022/09/11 12:40:10;;;;;;;;;;;24.00;99.80;;;;;;5116727;27;20372;-62
2022/09/11 12:42:39;;;;;;;;;;;24.00;99.90;;;;;;5099753;27;19946;-62
2022/09/11 12:45:24;;;;;;;;;;;23.80;99.70;;;;;;5135034;27;19941;-63
2022/09/11 12:47:50;;;;;;;;;;;23.60;99.90;;;;;;5099929;27;19998;-63
2022/09/11 12:50:21;;;;;;;;;;;23.40;99.90;;;;;;5134719;27;19970;-62
2022/09/11 12:52:53;;;;;;;;;;;23.30;99.90;;;;;;5116511;27;20368;-63
2022/09/11 12:55:30;;;;;;;;;;;23.30;99.90;;;;;;5116707;27;19946;-62
2022/09/11 12:58:01;;;;;;;;;;;23.10;99.90;;;;;;5135015;27;20367;-63
2022/09/11 13:00:37;;;;;;;;;;;23.00;99.90;;;;;;5135149;27;19927;-63
2022/09/11 13:03:05;;;;;;;;;;;22.90;99.90;;;;;;5099635;27;20452;-63
2022/09/11 13:05:35;;;;;;;;;;;22.90;99.90;;;;;;5133879;27;19971;-62
2022/09/11 13:08:03;;;;;;;;;;;22.70;99.90;;;;;;5116865;27;19920;-62
2022/09/11 13:10:34;;;;;;;;;;;22.60;99.90;;;;;;5116963;27;19930;-61
2022/09/11 13:13:02;;;;;;;;;;;22.50;99.90;;;;;;5134498;27;19919;-62
2022/09/11 13:15:40;;;;;;;;;;;22.40;99.90;;;;;;5135155;27;19988;-62
2022/09/11 13:18:23;;;;;;;;;;;22.30;99.90;;;;;;5116193;27;19919;-65
2022/09/11 13:21:21;;;;;;;;;;;22.30;99.90;;;;;;5099149;27;19923;-63
2022/09/11 13:23:47;;;;;;;;;;;22.30;99.90;;;;;;5088757;27;20291;-63
2022/09/11 13:26:17;;;;;;;;;;;22.20;99.90;;;;;;5134112;27;20010;-65
2022/09/11 13:28:44;;;;;;;;;;;22.20;99.90;;;;;;5116036;27;20178;-62
2022/09/11 13:31:15;;;;;;;;;;;22.10;99.90;;;;;;5133900;27;19919;-63
2022/09/11 13:33:42;;;;;;;;;;;22.10;99.90;;;;;;5134150;27;19944;-63
2022/09/11 13:36:11;;;;;;;;;;;22.10;99.90;;;;;;5133575;27;20436;-63
2022/09/11 13:38:37;;;;;;;;;;;22.20;99.90;;;;;;5134139;27;19923;-62
2022/09/11 13:41:05;;;;;;;;;;;22.30;99.90;;;;;;5133390;27;19927;-62
2022/09/11 13:43:41;;;;;;;;;;;22.30;99.90;;;;;;5133884;27;19919;-61
2022/09/11 13:46:13;;;;;;;;;;;22.30;99.90;;;;;;5115118;27;20348;-61
2022/09/11 13:48:39;;;;;;;;;;;22.30;99.90;;;;;;5133799;27;19996;-62
2022/09/11 13:51:05;;;;;;;;;;;22.30;99.90;;;;;;5115080;27;19919;-62
2022/09/11 13:53:32;;;;;;;;;;;22.30;99.90;;;;;;5133379;27;19919;-62
2022/09/11 13:55:57;;;;;;;;;;;22.40;99.90;;;;;;5133417;27;20276;-63
2022/09/11 13:58:24;;;;;;;;;;;22.50;99.90;;;;;;5132984;27;19919;-62
2022/09/11 14:00:51;;;;;;;;;;;22.60;99.90;;;;;;5133373;27;19919;-62
2022/09/11 14:03:19;;;;;;;;;;;22.70;99.90;;;;;;5098598;27;19919;-62
2022/09/11 14:05:55;;;;;;;;;;;22.80;99.80;;;;;;5133973;27;20321;-61
2022/09/11 14:08:24;;;;;;;;;;;22.90;99.90;;;;;;5113551;27;20153;-62
2022/09/11 14:10:52;;;;;;;;;;;23.00;99.70;;;;;;5114404;27;19919;-62
2022/09/11 14:13:23;;;;;;;;;;;23.10;99.90;;;;;;5131999;27;19919;-61
2022/09/11 14:15:51;;;;;;;;;;;23.20;99.60;;;;;;5133088;27;20019;-61
2022/09/11 14:18:16;;;;;;;;;;;23.20;99.30;;;;;;5132872;27;20348;-62
2022/09/11 14:20:43;;;;;;;;;;;23.30;99.60;;;;;;5131925;27;19965;-61
2022/09/11 14:23:12;;;;;;;;;;;23.30;99.80;;;;;;5132854;27;19923;-62
2022/09/11 14:25:42;;;;;;;;;;;23.30;99.90;;;;;;5098224;27;20302;-61
2022/09/11 14:28:29;;;;;;;;;;;23.30;99.90;;;;;;5132929;27;19925;-62